createdAt,value
2023-04-08T00:02:09.496Z,6.50
2023-04-08T00:04:37.770Z,6.10
2023-04-08T00:07:06.178Z,6.10
2023-04-08T00:09:35.786Z,6.20
2023-04-08T00:12:04.111Z,6.20
2023-04-08T00:14:32.100Z,6.10
2023-04-08T00:17:00.179Z,6.00
2023-04-08T00:19:28.237Z,5.80
2023-04-08T00:21:56.397Z,6.00
2023-04-08T00:24:24.492Z,6.00
2023-04-08T00:26:54.078Z,5.90
2023-04-08T00:29:22.288Z,5.90
2023-04-08T00:31:50.460Z,5.90
2023-04-08T00:34:18.512Z,5.90
2023-04-08T00:36:47.536Z,5.90
2023-04-08T00:39:15.704Z,5.90
2023-04-08T00:41:43.749Z,5.90
2023-04-08T00:44:13.327Z,5.80
2023-04-08T00:46:41.735Z,5.80
2023-04-08T00:49:09.950Z,5.80
2023-04-08T00:51:38.109Z,5.60
2023-04-08T00:54:06.658Z,5.90
2023-04-08T00:56:36.830Z,5.50
2023-04-08T00:59:06.176Z,5.60
2023-04-08T01:01:42.629Z,5.60
2023-04-08T01:04:18.319Z,5.60
2023-04-08T01:06:54.006Z,4.90
2023-04-08T01:09:26.617Z,5.60
2023-04-08T01:11:56.884Z,5.50
2023-04-08T01:14:28.102Z,5.50
2023-04-08T01:17:00.115Z,5.50
2023-04-08T01:19:31.926Z,5.60
2023-04-08T01:22:08.367Z,5.50
2023-04-08T01:24:40.217Z,5.60
2023-04-08T01:27:11.523Z,5.50
2023-04-08T01:29:40.718Z,5.40
2023-04-08T01:32:09.779Z,5.50
2023-04-08T01:34:39.510Z,5.40
2023-04-08T01:37:08.607Z,5.30
2023-04-08T01:39:37.796Z,5.40
2023-04-08T01:42:06.621Z,5.60
2023-04-08T01:44:38.182Z,5.30
2023-04-08T01:47:06.371Z,5.40
2023-04-08T01:49:36.999Z,5.30
2023-04-08T01:52:07.094Z,5.30
2023-04-08T01:54:35.991Z,5.30
2023-04-08T01:57:08.820Z,5.20
2023-04-08T01:59:41.391Z,5.30
2023-04-08T02:02:11.333Z,5.20
2023-04-08T02:04:39.893Z,5.20
2023-04-08T02:07:08.276Z,5.20
2023-04-08T02:09:38.938Z,5.00
2023-04-08T02:12:07.445Z,5.10
2023-04-08T02:14:37.123Z,5.10
2023-04-08T02:17:11.014Z,5.00
2023-04-08T02:19:45.404Z,4.90
2023-04-08T02:22:18.958Z,5.00
2023-04-08T02:24:47.957Z,5.00
2023-04-08T02:27:18.220Z,5.10
2023-04-08T02:29:50.086Z,5.00
2023-04-08T02:32:19.736Z,4.90
2023-04-08T02:34:49.073Z,5.00
2023-04-08T02:37:17.780Z,5.00
2023-04-08T02:39:46.286Z,5.00
2023-04-08T02:42:14.399Z,5.00
2023-04-08T02:44:42.624Z,4.90
2023-04-08T02:47:12.667Z,5.00
2023-04-08T02:49:40.870Z,4.90
2023-04-08T02:52:09.312Z,5.10
2023-04-08T02:54:38.546Z,5.40
2023-04-08T02:57:06.573Z,5.30
2023-04-08T02:59:37.726Z,5.10
2023-04-08T03:02:05.857Z,4.90
2023-04-08T03:04:35.490Z,5.00
2023-04-08T03:07:03.545Z,4.90
2023-04-08T03:09:31.688Z,5.00
2023-04-08T03:11:59.865Z,5.00
2023-04-08T03:14:27.969Z,5.10
2023-04-08T03:16:56.218Z,5.10
2023-04-08T03:19:24.261Z,5.10
2023-04-08T03:21:53.714Z,5.10
2023-04-08T03:24:21.746Z,5.00
2023-04-08T03:26:49.929Z,5.10
2023-04-08T03:29:18.132Z,5.10
2023-04-08T03:31:46.331Z,5.10
2023-04-08T03:34:14.616Z,5.20
2023-04-08T03:36:42.723Z,5.40
2023-04-08T03:39:12.272Z,5.10
2023-04-08T03:41:40.348Z,5.20
2023-04-08T03:44:08.526Z,5.10
2023-04-08T03:46:36.685Z,5.20
2023-04-08T03:49:04.731Z,5.20
2023-04-08T03:51:32.801Z,5.10
2023-04-08T03:54:00.912Z,5.20
2023-04-08T03:56:30.471Z,5.20
2023-04-08T03:58:58.565Z,5.20
2023-04-08T04:01:29.081Z,4.70
2023-04-08T04:03:57.330Z,5.10
2023-04-08T04:06:26.141Z,5.10
2023-04-08T04:08:55.013Z,5.20
2023-04-08T04:11:23.153Z,5.10
2023-04-08T04:13:52.647Z,5.20
2023-04-08T04:16:20.799Z,5.10
2023-04-08T04:18:49.175Z,5.20
2023-04-08T04:21:17.571Z,5.10
2023-04-08T04:23:45.661Z,5.00
2023-04-08T04:26:14.066Z,5.60
2023-04-08T04:28:42.135Z,5.10
2023-04-08T04:31:19.820Z,5.10
2023-04-08T04:33:48.439Z,5.10
2023-04-08T04:36:16.650Z,5.20
2023-04-08T04:38:44.748Z,5.10
2023-04-08T04:41:12.973Z,5.10
2023-04-08T04:43:41.172Z,5.20
2023-04-08T04:46:09.290Z,5.10
2023-04-08T04:48:38.846Z,5.30
2023-04-08T04:51:07.577Z,5.20
2023-04-08T04:53:35.641Z,5.30
2023-04-08T04:56:03.874Z,5.30
2023-04-08T04:58:32.082Z,5.40
2023-04-08T05:01:00.533Z,5.30
2023-04-08T05:03:28.647Z,5.50
2023-04-08T05:05:58.190Z,5.50
2023-04-08T05:08:27.976Z,5.50
2023-04-08T05:11:02.080Z,5.40
2023-04-08T05:13:30.062Z,5.50
2023-04-08T05:15:58.061Z,5.60
2023-04-08T05:18:26.268Z,5.60
2023-04-08T05:20:54.444Z,5.70
2023-04-08T05:23:23.913Z,5.60
2023-04-08T05:25:51.977Z,5.60
2023-04-08T05:28:20.083Z,4.80
2023-04-08T05:30:50.573Z,5.60
2023-04-08T05:33:19.040Z,5.60
2023-04-08T05:35:47.626Z,5.60
2023-04-08T05:38:15.926Z,5.60
2023-04-08T05:40:47.677Z,5.60
2023-04-08T05:43:15.749Z,5.70
2023-04-08T05:45:44.021Z,5.80
2023-04-08T05:48:12.137Z,5.80
2023-04-08T05:50:40.347Z,5.80
2023-04-08T05:53:08.395Z,5.80
2023-04-08T05:55:36.437Z,5.80
2023-04-08T05:58:06.030Z,5.90
2023-04-08T06:00:34.107Z,6.00
2023-04-08T06:03:02.465Z,6.00
2023-04-08T06:05:30.842Z,6.00
2023-04-08T06:07:58.944Z,6.00
2023-04-08T06:10:27.029Z,5.90
2023-04-08T06:12:55.184Z,6.10
2023-04-08T06:15:24.932Z,6.00
2023-04-08T06:17:53.072Z,6.10
2023-04-08T06:20:21.327Z,6.00
2023-04-08T06:22:49.421Z,6.00
2023-04-08T06:25:17.917Z,6.10
2023-04-08T06:27:46.053Z,6.10
2023-04-08T06:30:14.360Z,6.10
2023-04-08T06:32:44.002Z,5.80
2023-04-08T06:35:12.135Z,6.10
2023-04-08T06:37:40.330Z,6.20
2023-04-08T06:40:09.611Z,6.10
2023-04-08T06:42:38.305Z,6.10
2023-04-08T06:45:07.672Z,6.10
2023-04-08T06:47:35.810Z,6.10
2023-04-08T06:50:05.755Z,6.00
2023-04-08T06:52:33.867Z,6.00
2023-04-08T06:55:01.925Z,6.00
2023-04-08T06:57:30.155Z,5.90
2023-04-08T07:00:00.442Z,6.10
2023-04-08T07:02:28.916Z,6.10
2023-04-08T07:04:57.132Z,6.20
2023-04-08T07:07:27.052Z,6.20
2023-04-08T07:12:37.235Z,6.30
2023-04-08T07:15:08.712Z,6.20
2023-04-08T07:17:37.080Z,6.30
2023-04-08T07:20:06.199Z,6.30
2023-04-08T07:22:35.620Z,6.20
2023-04-08T07:30:55.345Z,6.10
2023-04-08T07:33:28.252Z,6.10
2023-04-08T07:36:05.419Z,6.00
2023-04-08T07:41:14.782Z,6.00
2023-04-08T07:43:49.929Z,5.80
2023-04-08T07:46:23.601Z,5.80
2023-04-08T07:49:13.505Z,5.90
2023-04-08T07:51:47.878Z,6.00
2023-04-08T07:54:35.787Z,5.90
2023-04-08T07:57:38.092Z,5.90
2023-04-08T08:02:47.736Z,5.90
2023-04-08T08:05:16.210Z,5.90
2023-04-08T08:07:50.560Z,6.00
2023-04-08T08:10:22.792Z,6.00
2023-04-08T08:13:01.639Z,5.90
2023-04-08T08:15:32.232Z,6.00
2023-04-08T08:18:02.660Z,5.00
2023-04-08T08:20:34.593Z,6.00
2023-04-08T08:23:16.575Z,5.80
2023-04-08T08:26:18.000Z,5.80
2023-04-08T08:29:02.366Z,5.80
2023-04-08T08:34:13.058Z,5.80
2023-04-08T08:39:18.842Z,5.80
2023-04-08T08:41:47.133Z,5.60
2023-04-08T08:44:27.016Z,5.80
2023-04-08T08:49:43.816Z,5.70
2023-04-08T08:52:23.512Z,5.50
2023-04-08T08:55:01.311Z,5.40
2023-04-08T08:57:30.526Z,5.40
2023-04-08T09:00:02.277Z,5.40
2023-04-08T09:02:44.609Z,5.50
2023-04-08T09:05:19.789Z,5.50
2023-04-08T09:07:48.322Z,5.30
2023-04-08T09:10:46.432Z,5.30
2023-04-08T09:13:16.339Z,5.00
2023-04-08T09:16:05.832Z,5.00
2023-04-08T09:18:35.052Z,5.00
2023-04-08T09:21:03.969Z,5.10
2023-04-08T09:24:18.683Z,5.00
2023-04-08T09:26:48.638Z,5.10
2023-04-08T09:32:07.378Z,4.90
2023-04-08T09:37:43.106Z,5.10
2023-04-08T09:40:16.889Z,5.10
2023-04-08T09:42:51.098Z,5.20
2023-04-08T09:45:20.177Z,5.50
2023-04-08T09:48:18.188Z,5.30
2023-04-08T09:51:01.011Z,5.40
2023-04-08T09:56:30.633Z,5.40
2023-04-08T09:59:10.942Z,5.50
2023-04-08T10:01:43.689Z,5.60
2023-04-08T10:04:17.329Z,5.60
2023-04-08T10:06:47.959Z,5.90
2023-04-08T10:09:16.606Z,6.00
2023-04-08T10:11:45.092Z,6.30
2023-04-08T10:14:13.729Z,6.30
2023-04-08T10:16:42.122Z,6.40
2023-04-08T10:19:40.597Z,6.80
2023-04-08T10:22:42.309Z,7.20
2023-04-08T10:25:31.475Z,6.90
2023-04-08T10:27:59.917Z,6.80
2023-04-08T10:30:47.076Z,6.70
2023-04-08T10:33:18.647Z,6.40
2023-04-08T10:35:51.171Z,6.30
2023-04-08T10:38:20.273Z,6.20
2023-04-08T10:40:51.454Z,6.20
2023-04-08T10:43:19.649Z,6.20
2023-04-08T10:45:51.594Z,6.10
2023-04-08T10:48:22.512Z,6.00
2023-04-08T10:50:59.904Z,6.10
2023-04-08T10:53:29.802Z,5.90
2023-04-08T10:56:06.247Z,6.00
2023-04-08T10:58:34.698Z,6.00
2023-04-08T11:01:09.031Z,6.00
2023-04-08T11:03:38.038Z,6.00
2023-04-08T11:06:08.456Z,6.00
2023-04-08T11:08:38.593Z,5.90
2023-04-08T11:11:09.388Z,6.00
2023-04-08T11:13:38.444Z,6.00
2023-04-08T11:16:17.825Z,6.00
2023-04-08T11:18:48.202Z,6.00
2023-04-08T11:21:18.834Z,5.90
2023-04-08T11:23:46.938Z,5.90
2023-04-08T11:26:16.376Z,5.00
2023-04-08T11:28:45.902Z,5.90
2023-04-08T11:31:14.680Z,5.90
2023-04-08T11:33:47.741Z,5.90
2023-04-08T11:36:18.811Z,5.70
2023-04-08T11:38:48.031Z,5.70
2023-04-08T11:41:17.589Z,5.70
2023-04-08T11:43:56.092Z,5.60
2023-04-08T11:46:25.177Z,5.80
2023-04-08T11:49:01.348Z,5.70
2023-04-08T11:51:31.506Z,5.70
2023-04-08T11:53:59.683Z,5.70
2023-04-08T11:56:30.540Z,5.70
2023-04-08T11:58:58.692Z,5.60
2023-04-08T12:01:27.888Z,5.60
2023-04-08T12:04:00.223Z,5.40
2023-04-08T12:06:32.014Z,5.60
2023-04-08T12:09:00.435Z,5.70
2023-04-08T12:11:28.736Z,5.70
2023-04-08T12:13:57.441Z,5.80
2023-04-08T12:16:25.732Z,5.70
2023-04-08T12:18:53.920Z,5.80
2023-04-08T12:21:22.426Z,5.70
2023-04-08T12:23:53.123Z,5.70
2023-04-08T12:26:21.427Z,5.80
2023-04-08T12:28:49.529Z,5.80
2023-04-08T12:31:17.730Z,5.80
2023-04-08T12:33:45.927Z,5.80
2023-04-08T12:36:14.053Z,5.90
2023-04-08T12:38:42.190Z,5.90
2023-04-08T12:41:11.729Z,5.60
2023-04-08T12:43:40.615Z,5.50
2023-04-08T12:46:08.766Z,5.50
2023-04-08T12:48:36.930Z,4.60
2023-04-08T12:53:34.631Z,5.30
2023-04-08T12:56:02.928Z,5.30
2023-04-08T12:58:32.454Z,5.20
2023-04-08T13:01:00.566Z,5.10
2023-04-08T13:03:52.044Z,5.10
2023-04-08T13:06:20.381Z,5.10
2023-04-08T13:08:49.136Z,5.40
2023-04-08T13:11:17.386Z,5.20
2023-04-08T13:13:47.488Z,5.20
2023-04-08T13:16:16.145Z,5.40
2023-04-08T13:18:44.848Z,5.30
2023-04-08T13:21:12.982Z,5.30
2023-04-08T13:23:41.433Z,5.00
2023-04-08T13:26:09.614Z,5.10
2023-04-08T13:28:49.747Z,5.20
2023-04-08T13:31:23.722Z,5.30
2023-04-08T13:33:52.936Z,5.10
2023-04-08T13:36:22.031Z,5.10
2023-04-08T13:38:50.655Z,5.30
2023-04-08T13:41:19.036Z,5.30
2023-04-08T13:43:47.247Z,5.30
2023-04-08T13:46:15.478Z,5.20
2023-04-08T13:48:46.047Z,5.20
2023-04-08T13:51:14.148Z,6.10
2023-04-08T13:53:42.250Z,5.10
2023-04-08T13:56:10.671Z,5.30
2023-04-08T13:58:38.723Z,5.00
2023-04-08T14:01:07.089Z,5.10
2023-04-08T14:03:35.348Z,5.10
2023-04-08T14:06:05.193Z,5.20
2023-04-08T14:08:33.227Z,5.20
2023-04-08T14:11:01.397Z,5.30
2023-04-08T14:13:29.601Z,5.60
2023-04-08T14:15:58.610Z,5.10
2023-04-08T14:18:30.040Z,5.50
2023-04-08T14:20:58.395Z,5.50
2023-04-08T14:23:27.994Z,5.50
2023-04-08T14:25:56.125Z,5.50
2023-04-08T14:28:24.255Z,5.50
2023-04-08T14:30:52.526Z,5.50
2023-04-08T14:33:20.711Z,5.60
2023-04-08T14:35:48.717Z,5.70
2023-04-08T14:38:17.893Z,5.60
2023-04-08T14:40:47.432Z,5.50
2023-04-08T14:43:15.632Z,5.40
2023-04-08T14:45:45.412Z,5.50
2023-04-08T14:48:13.549Z,5.50
2023-04-08T14:50:41.789Z,5.50
2023-04-08T14:53:09.879Z,5.40
2023-04-08T14:55:38.551Z,5.40
2023-04-08T14:58:08.070Z,5.40
2023-04-08T15:00:46.481Z,5.30
2023-04-08T15:03:14.819Z,5.30
2023-04-08T15:05:45.200Z,5.20
2023-04-08T15:08:13.602Z,5.40
2023-04-08T15:10:41.886Z,5.20
2023-04-08T15:13:11.830Z,5.10
2023-04-08T15:15:39.978Z,5.30
2023-04-08T15:18:08.214Z,5.20
2023-04-08T15:20:36.489Z,5.20
2023-04-08T15:23:04.576Z,5.30
2023-04-08T15:25:32.913Z,5.40
2023-04-08T15:28:02.747Z,5.50
2023-04-08T15:30:35.848Z,5.40
2023-04-08T15:33:07.162Z,5.50
2023-04-08T15:35:35.256Z,5.40
2023-04-08T15:38:03.842Z,5.50
2023-04-08T15:40:34.525Z,5.50
2023-04-08T15:43:03.934Z,5.50
2023-04-08T15:45:33.493Z,5.40
2023-04-08T15:48:04.194Z,5.30
2023-04-08T15:50:33.050Z,5.20
2023-04-08T15:53:01.170Z,5.40
2023-04-08T15:55:29.345Z,5.30
2023-04-08T15:57:58.440Z,5.30
2023-04-08T16:03:05.623Z,5.30
2023-04-08T16:05:36.130Z,5.40
2023-04-08T16:08:04.631Z,5.30
2023-04-08T16:10:34.216Z,5.40
2023-04-08T16:13:04.163Z,5.20
2023-04-08T16:15:34.262Z,5.20
2023-04-08T16:18:05.042Z,5.30
2023-04-08T16:20:33.467Z,5.20
2023-04-08T16:23:01.941Z,5.10
2023-04-08T16:25:30.212Z,5.30
2023-04-08T16:27:59.202Z,5.20
2023-04-08T16:30:27.631Z,5.20
2023-04-08T16:32:57.079Z,5.30
2023-04-08T16:35:27.977Z,5.20
2023-04-08T16:37:56.519Z,5.20
2023-04-08T16:40:25.448Z,5.30
2023-04-08T16:42:54.362Z,5.30
2023-04-08T16:45:22.528Z,5.20
2023-04-08T16:47:51.818Z,5.20
2023-04-08T16:50:22.909Z,5.20
2023-04-08T16:52:53.198Z,5.20
2023-04-08T16:55:21.614Z,5.20
2023-04-08T17:03:38.313Z,5.40
2023-04-08T17:06:10.499Z,5.30
2023-04-08T17:08:43.149Z,5.30
2023-04-08T17:11:13.695Z,5.30
2023-04-08T17:13:44.228Z,5.10
2023-04-08T17:16:13.836Z,5.20
2023-04-08T17:18:42.047Z,5.20
2023-04-08T17:21:10.611Z,5.20
2023-04-08T17:23:40.802Z,5.30
2023-04-08T17:26:11.293Z,5.20
2023-04-08T17:28:40.212Z,5.40
2023-04-08T17:31:08.934Z,5.30
2023-04-08T17:33:37.238Z,5.30
2023-04-08T17:36:06.563Z,5.30
2023-04-08T17:38:35.770Z,5.10
2023-04-08T17:41:07.757Z,5.20
2023-04-08T17:43:36.112Z,5.30
2023-04-08T17:46:04.486Z,5.30
2023-04-08T17:48:32.707Z,5.40
2023-04-08T17:51:02.827Z,5.30
2023-04-08T17:53:31.524Z,5.30
2023-04-08T17:55:59.860Z,5.40
2023-04-08T17:58:29.524Z,5.30
2023-04-08T18:00:57.819Z,5.20
2023-04-08T18:03:26.381Z,5.50
2023-04-08T18:05:57.403Z,5.20
2023-04-08T18:08:26.184Z,5.20
2023-04-08T18:10:54.469Z,5.10
2023-04-08T18:13:22.543Z,4.90
2023-04-08T18:15:53.742Z,5.00
2023-04-08T18:18:22.220Z,5.20
2023-04-08T18:20:52.780Z,5.00
2023-04-08T18:23:21.308Z,5.00
2023-04-08T18:25:50.766Z,5.10
2023-04-08T18:28:19.105Z,5.00
2023-04-08T18:30:53.525Z,4.90
2023-04-08T18:33:21.844Z,5.10
2023-04-08T18:35:50.124Z,5.00
2023-04-08T18:38:18.464Z,4.90
2023-04-08T18:40:46.635Z,4.90
2023-04-08T18:43:14.905Z,4.90
2023-04-08T18:45:43.398Z,4.90
2023-04-08T18:48:13.472Z,4.80
2023-04-08T18:50:41.491Z,4.90
2023-04-08T18:53:09.813Z,5.00
2023-04-08T18:55:39.089Z,5.00
2023-04-08T18:58:07.673Z,5.00
2023-04-08T19:00:35.949Z,4.90
2023-04-08T19:03:04.139Z,4.90
2023-04-08T19:05:33.728Z,4.90
2023-04-08T19:08:02.524Z,4.90
2023-04-08T19:10:32.047Z,5.00
2023-04-08T19:13:00.795Z,5.00
2023-04-08T19:15:29.677Z,5.00
2023-04-08T19:17:59.027Z,5.00
2023-04-08T19:20:27.641Z,5.00
2023-04-08T19:22:57.419Z,5.00
2023-04-08T19:25:25.588Z,4.90
2023-04-08T19:27:53.685Z,4.80
2023-04-08T19:30:21.981Z,5.20
2023-04-08T19:32:50.425Z,5.00
2023-04-08T19:35:19.652Z,5.00
2023-04-08T19:37:47.757Z,5.00
2023-04-08T19:40:18.624Z,5.00
2023-04-08T19:42:47.064Z,5.00
2023-04-08T19:45:15.819Z,5.00
2023-04-08T19:47:45.108Z,5.00
2023-04-08T19:50:13.706Z,5.00
2023-04-08T19:52:41.901Z,5.10
2023-04-08T19:55:11.316Z,5.00
2023-04-08T19:57:41.310Z,5.00
2023-04-08T20:00:12.834Z,5.00
2023-04-08T20:02:42.349Z,5.10
2023-04-08T20:05:14.954Z,5.20
2023-04-08T20:07:43.351Z,5.10
2023-04-08T20:10:12.397Z,5.20
2023-04-08T20:12:41.973Z,5.20
2023-04-08T20:15:22.860Z,5.30
2023-04-08T20:17:52.988Z,5.30
2023-04-08T20:20:21.721Z,5.30
2023-04-08T20:22:49.682Z,5.30
2023-04-08T20:25:17.867Z,5.30
2023-04-08T20:27:47.520Z,5.40
2023-04-08T20:30:15.919Z,5.50
2023-04-08T20:32:44.324Z,5.40
2023-04-08T20:35:13.678Z,5.40
2023-04-08T20:37:41.977Z,5.50
2023-04-08T20:40:11.028Z,5.50
2023-04-08T20:42:39.453Z,5.50
2023-04-08T20:45:10.901Z,5.60
2023-04-08T20:47:39.272Z,5.50
2023-04-08T20:50:09.126Z,5.40
2023-04-08T20:52:37.655Z,5.40
2023-04-08T20:55:06.550Z,5.40
2023-04-08T20:57:34.559Z,5.50
2023-04-08T21:00:02.764Z,5.50
2023-04-08T21:02:32.287Z,5.40
2023-04-08T21:05:00.540Z,5.40
2023-04-08T21:07:28.772Z,5.50
2023-04-08T21:09:56.845Z,5.40
2023-04-08T21:12:24.904Z,5.30
2023-04-08T21:14:53.076Z,5.40
2023-04-08T21:17:21.094Z,5.50
2023-04-08T21:19:50.484Z,5.30
2023-04-08T21:22:18.626Z,5.60
2023-04-08T21:24:46.710Z,5.40
2023-04-08T21:27:14.878Z,5.40
2023-04-08T21:29:42.916Z,5.30
2023-04-08T21:32:11.227Z,5.40
2023-04-08T21:34:39.473Z,5.30
2023-04-08T21:37:09.062Z,5.20
2023-04-08T21:39:37.069Z,5.30
2023-04-08T21:42:06.059Z,5.30
2023-04-08T21:44:34.285Z,6.20
2023-04-08T21:47:02.438Z,5.20
2023-04-08T21:49:30.800Z,5.10
2023-04-08T21:51:58.984Z,5.20
2023-04-08T21:54:28.486Z,5.10
2023-04-08T21:56:56.698Z,5.10
2023-04-08T21:59:24.884Z,4.90
2023-04-08T22:01:53.064Z,5.10
2023-04-08T22:04:21.798Z,5.10
2023-04-08T22:06:49.850Z,5.00
2023-04-08T22:09:19.338Z,5.00
2023-04-08T22:11:48.946Z,5.00
2023-04-08T22:14:17.608Z,5.00
2023-04-08T22:16:45.994Z,5.00
2023-04-08T22:19:14.171Z,4.90
2023-04-08T22:21:42.202Z,5.30
2023-04-08T22:24:10.551Z,4.80
2023-04-08T22:26:38.569Z,4.90
2023-04-08T22:29:08.067Z,4.90
2023-04-08T22:31:36.219Z,5.00
2023-04-08T22:34:04.584Z,4.80
2023-04-08T22:36:32.888Z,4.80
2023-04-08T22:39:01.088Z,4.80
2023-04-08T22:41:29.441Z,4.70
2023-04-08T22:43:57.551Z,4.70
2023-04-08T22:46:27.117Z,4.60
2023-04-08T22:48:55.398Z,4.70
2023-04-08T22:51:23.744Z,4.70
2023-04-08T22:53:52.074Z,4.70
2023-04-08T22:56:21.439Z,4.70
2023-04-08T22:58:49.633Z,4.70
2023-04-08T23:01:20.939Z,4.60
2023-04-08T23:03:51.506Z,4.50
2023-04-08T23:06:19.616Z,4.60
2023-04-08T23:08:47.763Z,4.60
2023-04-08T23:11:15.889Z,4.70
2023-04-08T23:13:43.917Z,4.60
2023-04-08T23:16:12.034Z,4.50
2023-04-08T23:18:40.097Z,4.50
2023-04-08T23:21:09.507Z,4.70
2023-04-08T23:23:37.670Z,4.40
2023-04-08T23:26:05.770Z,4.40
2023-04-08T23:28:33.924Z,4.50
2023-04-08T23:31:05.434Z,4.50
2023-04-08T23:33:33.553Z,4.40
2023-04-08T23:36:01.727Z,4.40
2023-04-08T23:38:31.246Z,4.40
2023-04-08T23:40:59.303Z,4.30
2023-04-08T23:43:27.352Z,4.40
2023-04-08T23:45:55.487Z,4.40
2023-04-08T23:48:23.749Z,4.40
2023-04-08T23:50:52.507Z,4.40
2023-04-08T23:53:21.366Z,4.40
2023-04-08T23:55:50.822Z,4.50
2023-04-08T23:58:18.968Z,4.50
